sensor_id;sensor_type;location;lat;lon;timestamp;temperature;humidity
5246;DHT22;54412;51.206;6.888;2023-02-22T00:01:23;7.10;99.90
5246;DHT22;54412;51.206;6.888;2023-02-22T00:04:11;7.10;99.90
5246;DHT22;54412;51.206;6.888;2023-02-22T00:06:38;7.10;99.90
5246;DHT22;54412;51.206;6.888;2023-02-22T00:09:04;7.00;99.90
5246;DHT22;54412;51.206;6.888;2023-02-22T00:11:30;7.00;99.90
5246;DHT22;54412;51.206;6.888;2023-02-22T00:13:56;7.00;99.90
5246;DHT22;54412;51.206;6.888;2023-02-22T00:16:23;7.10;99.90
5246;DHT22;54412;51.206;6.888;2023-02-22T00:18:50;7.10;99.90
5246;DHT22;54412;51.206;6.888;2023-02-22T00:21:16;7.20;99.90
5246;DHT22;54412;51.206;6.888;2023-02-22T00:23:45;7.20;99.90
5246;DHT22;54412;51.206;6.888;2023-02-22T00:26:14;7.20;99.90
5246;DHT22;54412;51.206;6.888;2023-02-22T00:28:51;7.10;99.90
5246;DHT22;54412;51.206;6.888;2023-02-22T00:31:19;7.10;99.90
5246;DHT22;54412;51.206;6.888;2023-02-22T00:33:45;7.00;99.90
5246;DHT22;54412;51.206;6.888;2023-02-22T00:36:12;7.00;99.90
5246;DHT22;54412;51.206;6.888;2023-02-22T00:38:39;7.00;99.90
5246;DHT22;54412;51.206;6.888;2023-02-22T00:41:05;7.00;99.90
5246;DHT22;54412;51.206;6.888;2023-02-22T00:43:32;7.00;99.90
5246;DHT22;54412;51.206;6.888;2023-02-22T00:45:58;7.00;99.90
5246;DHT22;54412;51.206;6.888;2023-02-22T00:48:24;7.00;99.90
5246;DHT22;54412;51.206;6.888;2023-02-22T00:50:50;7.00;99.90
5246;DHT22;54412;51.206;6.888;2023-02-22T00:53:20;7.00;99.90
5246;DHT22;54412;51.206;6.888;2023-02-22T00:55:46;7.00;99.90
5246;DHT22;54412;51.206;6.888;2023-02-22T00:58:12;7.00;99.90
5246;DHT22;54412;51.206;6.888;2023-02-22T01:00:39;7.10;99.90
5246;DHT22;54412;51.206;6.888;2023-02-22T01:03:08;7.00;99.90
5246;DHT22;54412;51.206;6.888;2023-02-22T01:05:37;7.10;99.90
5246;DHT22;54412;51.206;6.888;2023-02-22T01:08:04;7.00;99.90
5246;DHT22;54412;51.206;6.888;2023-02-22T01:10:32;6.90;99.90
5246;DHT22;54412;51.206;6.888;2023-02-22T01:12:59;6.90;99.90
5246;DHT22;54412;51.206;6.888;2023-02-22T01:15:27;6.90;99.90
5246;DHT22;54412;51.206;6.888;2023-02-22T01:17:55;7.00;99.90
5246;DHT22;54412;51.206;6.888;2023-02-22T01:20:23;7.00;99.90
5246;DHT22;54412;51.206;6.888;2023-02-22T01:22:52;7.10;99.90
5246;DHT22;54412;51.206;6.888;2023-02-22T01:25:23;7.00;99.90
5246;DHT22;54412;51.206;6.888;2023-02-22T01:27:50;7.00;99.90
5246;DHT22;54412;51.206;6.888;2023-02-22T01:30:21;7.10;99.90
5246;DHT22;54412;51.206;6.888;2023-02-22T01:32:49;7.10;99.90
5246;DHT22;54412;51.206;6.888;2023-02-22T01:35:19;7.10;99.90
5246;DHT22;54412;51.206;6.888;2023-02-22T01:37:46;7.10;99.90
5246;DHT22;54412;51.206;6.888;2023-02-22T01:40:22;7.10;99.90
5246;DHT22;54412;51.206;6.888;2023-02-22T01:43:01;7.10;99.90
5246;DHT22;54412;51.206;6.888;2023-02-22T01:48:08;7.10;99.90
5246;DHT22;54412;51.206;6.888;2023-02-22T01:53:57;7.10;99.90
5246;DHT22;54412;51.206;6.888;2023-02-22T01:56:29;7.00;99.90
5246;DHT22;54412;51.206;6.888;2023-02-22T01:59:02;7.00;99.90
5246;DHT22;54412;51.206;6.888;2023-02-22T02:01:34;7.00;99.90
5246;DHT22;54412;51.206;6.888;2023-02-22T02:04:06;7.00;99.90
5246;DHT22;54412;51.206;6.888;2023-02-22T02:06:35;7.00;99.90
5246;DHT22;54412;51.206;6.888;2023-02-22T02:11:39;6.90;99.90
5246;DHT22;54412;51.206;6.888;2023-02-22T02:14:07;6.90;99.90
5246;DHT22;54412;51.206;6.888;2023-02-22T02:16:41;7.00;99.90
5246;DHT22;54412;51.206;6.888;2023-02-22T02:25:18;6.90;99.90
5246;DHT22;54412;51.206;6.888;2023-02-22T02:37:48;6.90;99.90
5246;DHT22;54412;51.206;6.888;2023-02-22T02:40:47;6.80;99.90
5246;DHT22;54412;51.206;6.888;2023-02-22T02:43:27;6.80;99.90
5246;DHT22;54412;51.206;6.888;2023-02-22T02:46:05;6.80;99.90
5246;DHT22;54412;51.206;6.888;2023-02-22T02:48:38;6.80;99.90
5246;DHT22;54412;51.206;6.888;2023-02-22T02:51:12;6.70;99.90
5246;DHT22;54412;51.206;6.888;2023-02-22T02:53:43;6.70;99.90
5246;DHT22;54412;51.206;6.888;2023-02-22T02:56:11;6.70;99.90
5246;DHT22;54412;51.206;6.888;2023-02-22T02:58:50;6.50;99.90
5246;DHT22;54412;51.206;6.888;2023-02-22T03:04:29;6.50;99.90
5246;DHT22;54412;51.206;6.888;2023-02-22T03:07:33;6.60;99.90
5246;DHT22;54412;51.206;6.888;2023-02-22T03:10:42;6.50;99.90
5246;DHT22;54412;51.206;6.888;2023-02-22T03:16:39;6.60;99.90
5246;DHT22;54412;51.206;6.888;2023-02-22T03:22:29;6.60;99.90
5246;DHT22;54412;51.206;6.888;2023-02-22T03:25:19;6.40;99.90
5246;DHT22;54412;51.206;6.888;2023-02-22T03:27:52;6.40;99.90
5246;DHT22;54412;51.206;6.888;2023-02-22T03:30:36;6.30;99.90
5246;DHT22;54412;51.206;6.888;2023-02-22T03:33:19;6.10;99.90
5246;DHT22;54412;51.206;6.888;2023-02-22T03:35:56;6.10;99.90
5246;DHT22;54412;51.206;6.888;2023-02-22T03:38:30;6.30;99.90
5246;DHT22;54412;51.206;6.888;2023-02-22T03:41:01;6.20;99.90
5246;DHT22;54412;51.206;6.888;2023-02-22T03:43:41;6.20;99.90
5246;DHT22;54412;51.206;6.888;2023-02-22T03:46:12;6.00;99.90
5246;DHT22;54412;51.206;6.888;2023-02-22T03:51:16;6.20;99.90
5246;DHT22;54412;51.206;6.888;2023-02-22T03:53:43;6.00;99.90
5246;DHT22;54412;51.206;6.888;2023-02-22T03:56:12;6.00;99.90
5246;DHT22;54412;51.206;6.888;2023-02-22T03:58:45;6.20;99.90
5246;DHT22;54412;51.206;6.888;2023-02-22T04:01:13;6.30;99.90
5246;DHT22;54412;51.206;6.888;2023-02-22T04:03:39;6.20;99.90
5246;DHT22;54412;51.206;6.888;2023-02-22T04:06:06;6.20;99.90
5246;DHT22;54412;51.206;6.888;2023-02-22T04:08:32;6.20;99.90
5246;DHT22;54412;51.206;6.888;2023-02-22T04:10:58;6.30;99.90
5246;DHT22;54412;51.206;6.888;2023-02-22T04:13:25;6.20;99.90
5246;DHT22;54412;51.206;6.888;2023-02-22T04:15:52;6.30;99.90
5246;DHT22;54412;51.206;6.888;2023-02-22T04:18:18;6.30;99.90
5246;DHT22;54412;51.206;6.888;2023-02-22T04:20:44;6.40;99.90
5246;DHT22;54412;51.206;6.888;2023-02-22T04:23:10;6.30;99.90
5246;DHT22;54412;51.206;6.888;2023-02-22T04:25:36;6.20;99.90
5246;DHT22;54412;51.206;6.888;2023-02-22T04:28:02;6.30;99.90
5246;DHT22;54412;51.206;6.888;2023-02-22T04:30:28;6.30;99.90
5246;DHT22;54412;51.206;6.888;2023-02-22T04:32:55;6.30;99.90
5246;DHT22;54412;51.206;6.888;2023-02-22T04:35:21;6.30;99.90
5246;DHT22;54412;51.206;6.888;2023-02-22T04:37:48;6.30;99.90
5246;DHT22;54412;51.206;6.888;2023-02-22T04:40:15;6.30;99.90
5246;DHT22;54412;51.206;6.888;2023-02-22T04:42:41;6.30;99.90
5246;DHT22;54412;51.206;6.888;2023-02-22T04:45:08;6.40;99.90
5246;DHT22;54412;51.206;6.888;2023-02-22T04:47:35;6.40;99.90
5246;DHT22;54412;51.206;6.888;2023-02-22T04:50:03;6.40;99.90
5246;DHT22;54412;51.206;6.888;2023-02-22T04:52:30;6.50;99.90
5246;DHT22;54412;51.206;6.888;2023-02-22T04:54:55;6.40;99.90
5246;DHT22;54412;51.206;6.888;2023-02-22T04:57:22;6.30;99.90
5246;DHT22;54412;51.206;6.888;2023-02-22T04:59:48;6.40;99.90
5246;DHT22;54412;51.206;6.888;2023-02-22T05:02:15;6.40;99.90
5246;DHT22;54412;51.206;6.888;2023-02-22T05:04:42;6.50;99.90
5246;DHT22;54412;51.206;6.888;2023-02-22T05:07:07;6.50;99.90
5246;DHT22;54412;51.206;6.888;2023-02-22T05:09:33;6.50;99.90
5246;DHT22;54412;51.206;6.888;2023-02-22T05:11:59;6.40;99.90
5246;DHT22;54412;51.206;6.888;2023-02-22T05:14:24;6.30;99.90
5246;DHT22;54412;51.206;6.888;2023-02-22T05:16:56;6.40;99.90
5246;DHT22;54412;51.206;6.888;2023-02-22T05:19:23;6.40;99.90
5246;DHT22;54412;51.206;6.888;2023-02-22T05:21:49;6.20;99.90
5246;DHT22;54412;51.206;6.888;2023-02-22T05:24:15;6.30;99.90
5246;DHT22;54412;51.206;6.888;2023-02-22T05:26:45;6.20;99.90
5246;DHT22;54412;51.206;6.888;2023-02-22T05:29:11;6.10;99.90
5246;DHT22;54412;51.206;6.888;2023-02-22T05:31:37;6.10;99.90
5246;DHT22;54412;51.206;6.888;2023-02-22T05:34:03;5.80;99.90
5246;DHT22;54412;51.206;6.888;2023-02-22T05:36:29;5.80;99.90
5246;DHT22;54412;51.206;6.888;2023-02-22T05:38:55;5.80;99.90
5246;DHT22;54412;51.206;6.888;2023-02-22T05:41:20;6.00;99.90
5246;DHT22;54412;51.206;6.888;2023-02-22T05:43:46;5.90;99.90
5246;DHT22;54412;51.206;6.888;2023-02-22T05:46:13;5.80;99.90
5246;DHT22;54412;51.206;6.888;2023-02-22T05:48:39;5.90;99.90
5246;DHT22;54412;51.206;6.888;2023-02-22T05:51:05;5.80;99.90
5246;DHT22;54412;51.206;6.888;2023-02-22T05:53:31;5.90;99.90
5246;DHT22;54412;51.206;6.888;2023-02-22T05:55:57;5.80;99.90
5246;DHT22;54412;51.206;6.888;2023-02-22T05:58:23;5.80;99.90
5246;DHT22;54412;51.206;6.888;2023-02-22T06:00:49;5.90;99.90
5246;DHT22;54412;51.206;6.888;2023-02-22T06:03:14;5.80;99.90
5246;DHT22;54412;51.206;6.888;2023-02-22T06:05:40;5.80;99.90
5246;DHT22;54412;51.206;6.888;2023-02-22T06:08:06;5.90;99.90
5246;DHT22;54412;51.206;6.888;2023-02-22T06:10:33;6.00;99.90
5246;DHT22;54412;51.206;6.888;2023-02-22T06:12:59;5.90;99.90
5246;DHT22;54412;51.206;6.888;2023-02-22T06:15:27;5.70;99.90
5246;DHT22;54412;51.206;6.888;2023-02-22T06:17:54;5.70;99.90
5246;DHT22;54412;51.206;6.888;2023-02-22T06:20:22;5.60;99.90
5246;DHT22;54412;51.206;6.888;2023-02-22T06:22:50;5.70;99.90
5246;DHT22;54412;51.206;6.888;2023-02-22T06:25:20;5.90;99.90
5246;DHT22;54412;51.206;6.888;2023-02-22T06:27:48;5.90;99.90
5246;DHT22;54412;51.206;6.888;2023-02-22T06:30:18;5.90;99.90
5246;DHT22;54412;51.206;6.888;2023-02-22T06:32:44;5.90;99.90
5246;DHT22;54412;51.206;6.888;2023-02-22T06:35:10;6.00;99.90
5246;DHT22;54412;51.206;6.888;2023-02-22T06:37:36;6.00;99.90
5246;DHT22;54412;51.206;6.888;2023-02-22T06:40:03;6.00;99.90
5246;DHT22;54412;51.206;6.888;2023-02-22T06:42:28;6.10;99.90
5246;DHT22;54412;51.206;6.888;2023-02-22T06:44:54;6.20;99.90
5246;DHT22;54412;51.206;6.888;2023-02-22T06:47:20;6.20;99.90
5246;DHT22;54412;51.206;6.888;2023-02-22T06:49:55;6.20;99.90
5246;DHT22;54412;51.206;6.888;2023-02-22T06:52:22;6.10;99.90
5246;DHT22;54412;51.206;6.888;2023-02-22T06:54:48;6.20;99.90
5246;DHT22;54412;51.206;6.888;2023-02-22T06:57:15;6.10;99.90
5246;DHT22;54412;51.206;6.888;2023-02-22T06:59:41;6.10;99.90
5246;DHT22;54412;51.206;6.888;2023-02-22T07:02:10;6.00;99.90
5246;DHT22;54412;51.206;6.888;2023-02-22T07:04:36;6.00;99.90
5246;DHT22;54412;51.206;6.888;2023-02-22T07:07:03;6.10;99.90
5246;DHT22;54412;51.206;6.888;2023-02-22T07:09:28;6.20;99.90
5246;DHT22;54412;51.206;6.888;2023-02-22T07:11:54;6.10;99.90
5246;DHT22;54412;51.206;6.888;2023-02-22T07:14:20;6.10;99.90
5246;DHT22;54412;51.206;6.888;2023-02-22T07:16:46;6.10;99.90
5246;DHT22;54412;51.206;6.888;2023-02-22T07:19:12;6.30;99.90
5246;DHT22;54412;51.206;6.888;2023-02-22T07:21:38;6.30;99.90
5246;DHT22;54412;51.206;6.888;2023-02-22T07:24:04;6.40;99.90
5246;DHT22;54412;51.206;6.888;2023-02-22T07:26:30;6.30;99.90
5246;DHT22;54412;51.206;6.888;2023-02-22T07:28:56;6.40;99.90
5246;DHT22;54412;51.206;6.888;2023-02-22T07:31:21;6.30;99.90
5246;DHT22;54412;51.206;6.888;2023-02-22T07:33:48;6.30;99.90
5246;DHT22;54412;51.206;6.888;2023-02-22T07:36:13;6.40;99.90
5246;DHT22;54412;51.206;6.888;2023-02-22T07:38:43;6.40;99.90
5246;DHT22;54412;51.206;6.888;2023-02-22T07:41:09;6.50;99.90
5246;DHT22;54412;51.206;6.888;2023-02-22T07:43:35;6.60;99.90
5246;DHT22;54412;51.206;6.888;2023-02-22T07:46:01;6.60;99.90
5246;DHT22;54412;51.206;6.888;2023-02-22T07:48:29;6.50;99.90
5246;DHT22;54412;51.206;6.888;2023-02-22T07:50:56;6.60;99.90
5246;DHT22;54412;51.206;6.888;2023-02-22T07:53:25;6.70;99.90
5246;DHT22;54412;51.206;6.888;2023-02-22T07:55:58;6.80;99.90
5246;DHT22;54412;51.206;6.888;2023-02-22T07:58:28;6.90;99.90
5246;DHT22;54412;51.206;6.888;2023-02-22T08:00:55;7.00;99.90
5246;DHT22;54412;51.206;6.888;2023-02-22T08:03:24;7.00;99.90
5246;DHT22;54412;51.206;6.888;2023-02-22T08:05:52;6.90;99.90
5246;DHT22;54412;51.206;6.888;2023-02-22T08:08:20;7.00;99.90
5246;DHT22;54412;51.206;6.888;2023-02-22T08:10:47;7.20;99.90
5246;DHT22;54412;51.206;6.888;2023-02-22T08:13:14;7.40;99.90
5246;DHT22;54412;51.206;6.888;2023-02-22T08:15:41;7.40;99.90
5246;DHT22;54412;51.206;6.888;2023-02-22T08:18:12;7.60;99.90
5246;DHT22;54412;51.206;6.888;2023-02-22T08:20:41;7.90;99.90
5246;DHT22;54412;51.206;6.888;2023-02-22T08:23:09;8.10;99.90
5246;DHT22;54412;51.206;6.888;2023-02-22T08:25:36;8.20;99.90
5246;DHT22;54412;51.206;6.888;2023-02-22T08:28:05;8.30;99.90
5246;DHT22;54412;51.206;6.888;2023-02-22T08:30:36;8.30;99.90
5246;DHT22;54412;51.206;6.888;2023-02-22T08:33:03;8.50;99.90
5246;DHT22;54412;51.206;6.888;2023-02-22T08:35:31;8.50;99.90
5246;DHT22;54412;51.206;6.888;2023-02-22T08:38:02;8.50;99.90
5246;DHT22;54412;51.206;6.888;2023-02-22T08:40:32;8.60;99.90
5246;DHT22;54412;51.206;6.888;2023-02-22T08:43:00;8.70;99.90
5246;DHT22;54412;51.206;6.888;2023-02-22T08:45:27;8.80;99.90
5246;DHT22;54412;51.206;6.888;2023-02-22T08:47:53;9.00;99.90
5246;DHT22;54412;51.206;6.888;2023-02-22T08:50:26;9.20;99.90
5246;DHT22;54412;51.206;6.888;2023-02-22T08:52:59;9.20;99.90
5246;DHT22;54412;51.206;6.888;2023-02-22T08:55:31;9.40;99.90
5246;DHT22;54412;51.206;6.888;2023-02-22T08:58:00;9.50;99.90
5246;DHT22;54412;51.206;6.888;2023-02-22T09:00:28;9.80;99.90
5246;DHT22;54412;51.206;6.888;2023-02-22T09:02:58;9.70;99.90
5246;DHT22;54412;51.206;6.888;2023-02-22T09:05:25;9.70;99.90
5246;DHT22;54412;51.206;6.888;2023-02-22T09:07:51;9.80;99.90
5246;DHT22;54412;51.206;6.888;2023-02-22T09:10:20;9.90;99.90
5246;DHT22;54412;51.206;6.888;2023-02-22T09:12:49;9.90;99.90
5246;DHT22;54412;51.206;6.888;2023-02-22T09:15:16;10.00;99.90
5246;DHT22;54412;51.206;6.888;2023-02-22T09:17:43;10.00;99.90
5246;DHT22;54412;51.206;6.888;2023-02-22T09:20:09;9.90;99.90
5246;DHT22;54412;51.206;6.888;2023-02-22T09:22:37;9.90;99.90
5246;DHT22;54412;51.206;6.888;2023-02-22T09:25:04;10.00;99.90
5246;DHT22;54412;51.206;6.888;2023-02-22T09:27:30;10.00;99.90
5246;DHT22;54412;51.206;6.888;2023-02-22T09:29:55;10.00;99.90
5246;DHT22;54412;51.206;6.888;2023-02-22T09:32:23;10.30;99.90
5246;DHT22;54412;51.206;6.888;2023-02-22T09:34:52;10.50;99.90
5246;DHT22;54412;51.206;6.888;2023-02-22T09:37:19;10.50;99.90
5246;DHT22;54412;51.206;6.888;2023-02-22T09:39:44;10.70;99.90
5246;DHT22;54412;51.206;6.888;2023-02-22T09:42:33;10.70;99.90
5246;DHT22;54412;51.206;6.888;2023-02-22T09:45:13;10.70;99.90
5246;DHT22;54412;51.206;6.888;2023-02-22T09:47:49;10.70;99.90
5246;DHT22;54412;51.206;6.888;2023-02-22T09:50:27;10.80;99.90
5246;DHT22;54412;51.206;6.888;2023-02-22T09:56:00;10.70;99.90
5246;DHT22;54412;51.206;6.888;2023-02-22T09:58:39;10.70;99.90
5246;DHT22;54412;51.206;6.888;2023-02-22T10:01:41;10.90;99.90
5246;DHT22;54412;51.206;6.888;2023-02-22T10:04:39;11.10;99.90
5246;DHT22;54412;51.206;6.888;2023-02-22T10:07:22;11.20;99.90
5246;DHT22;54412;51.206;6.888;2023-02-22T10:09:54;11.10;99.90
5246;DHT22;54412;51.206;6.888;2023-02-22T10:12:33;11.20;99.90
5246;DHT22;54412;51.206;6.888;2023-02-22T10:15:39;11.40;99.90
5246;DHT22;54412;51.206;6.888;2023-02-22T10:18:37;11.70;99.90
5246;DHT22;54412;51.206;6.888;2023-02-22T10:24:27;11.80;99.90
5246;DHT22;54412;51.206;6.888;2023-02-22T10:27:06;12.00;99.90
5246;DHT22;54412;51.206;6.888;2023-02-22T10:30:06;12.10;99.90
5246;DHT22;54412;51.206;6.888;2023-02-22T10:32:44;12.20;99.90
5246;DHT22;54412;51.206;6.888;2023-02-22T10:35:21;12.20;99.90
5246;DHT22;54412;51.206;6.888;2023-02-22T10:37:54;12.20;99.90
5246;DHT22;54412;51.206;6.888;2023-02-22T10:40:27;12.20;99.90
5246;DHT22;54412;51.206;6.888;2023-02-22T10:43:04;12.20;99.90
5246;DHT22;54412;51.206;6.888;2023-02-22T10:45:33;12.30;99.90
5246;DHT22;54412;51.206;6.888;2023-02-22T10:48:04;12.50;99.90
5246;DHT22;54412;51.206;6.888;2023-02-22T10:50:35;12.50;99.90
5246;DHT22;54412;51.206;6.888;2023-02-22T10:53:05;12.60;99.90
5246;DHT22;54412;51.206;6.888;2023-02-22T10:55:32;12.80;99.90
5246;DHT22;54412;51.206;6.888;2023-02-22T10:58:06;13.00;99.90
5246;DHT22;54412;51.206;6.888;2023-02-22T11:00:38;13.30;99.90
5246;DHT22;54412;51.206;6.888;2023-02-22T11:03:19;13.40;99.90
5246;DHT22;54412;51.206;6.888;2023-02-22T11:05:46;13.30;99.90
5246;DHT22;54412;51.206;6.888;2023-02-22T11:08:28;13.40;99.90
5246;DHT22;54412;51.206;6.888;2023-02-22T11:11:00;13.50;99.90
5246;DHT22;54412;51.206;6.888;2023-02-22T11:16:18;14.30;99.90
5246;DHT22;54412;51.206;6.888;2023-02-22T11:19:02;14.40;99.90
5246;DHT22;54412;51.206;6.888;2023-02-22T11:21:36;14.80;99.90
5246;DHT22;54412;51.206;6.888;2023-02-22T11:24:06;15.00;99.90
5246;DHT22;54412;51.206;6.888;2023-02-22T11:26:44;15.00;99.90
5246;DHT22;54412;51.206;6.888;2023-02-22T11:29:31;15.10;99.90
5246;DHT22;54412;51.206;6.888;2023-02-22T11:32:12;15.10;99.90
5246;DHT22;54412;51.206;6.888;2023-02-22T11:34:40;15.20;99.90
5246;DHT22;54412;51.206;6.888;2023-02-22T11:37:50;14.80;99.90
5246;DHT22;54412;51.206;6.888;2023-02-22T11:40:18;14.80;99.90
5246;DHT22;54412;51.206;6.888;2023-02-22T11:42:47;14.80;99.90
5246;DHT22;54412;51.206;6.888;2023-02-22T11:45:20;14.90;99.90
5246;DHT22;54412;51.206;6.888;2023-02-22T11:48:02;15.10;99.90
5246;DHT22;54412;51.206;6.888;2023-02-22T11:56:39;15.40;99.90
5246;DHT22;54412;51.206;6.888;2023-02-22T12:05:16;15.20;99.90
5246;DHT22;54412;51.206;6.888;2023-02-22T12:19:30;16.10;99.90
5246;DHT22;54412;51.206;6.888;2023-02-22T12:22:02;15.90;99.90
5246;DHT22;54412;51.206;6.888;2023-02-22T12:24:39;15.90;99.90
5246;DHT22;54412;51.206;6.888;2023-02-22T12:27:24;15.80;99.90
5246;DHT22;54412;51.206;6.888;2023-02-22T12:32:54;16.30;99.90
5246;DHT22;54412;51.206;6.888;2023-02-22T12:35:49;16.30;99.90
5246;DHT22;54412;51.206;6.888;2023-02-22T12:38:25;16.30;99.90
5246;DHT22;54412;51.206;6.888;2023-02-22T12:41:13;16.30;99.90
5246;DHT22;54412;51.206;6.888;2023-02-22T12:46:37;15.90;99.90
5246;DHT22;54412;51.206;6.888;2023-02-22T12:49:44;16.10;99.90
5246;DHT22;54412;51.206;6.888;2023-02-22T12:55:24;16.20;99.90
5246;DHT22;54412;51.206;6.888;2023-02-22T12:58:08;16.50;99.90
5246;DHT22;54412;51.206;6.888;2023-02-22T13:01:05;16.50;99.90
5246;DHT22;54412;51.206;6.888;2023-02-22T13:03:41;16.30;99.90
5246;DHT22;54412;51.206;6.888;2023-02-22T13:06:30;16.40;99.90
5246;DHT22;54412;51.206;6.888;2023-02-22T13:23:53;16.40;99.90
5246;DHT22;54412;51.206;6.888;2023-02-22T13:27:09;16.10;99.90
5246;DHT22;54412;51.206;6.888;2023-02-22T13:29:41;16.10;99.90
5246;DHT22;54412;51.206;6.888;2023-02-22T13:35:27;16.10;99.90
5246;DHT22;54412;51.206;6.888;2023-02-22T13:46:25;16.20;99.90
5246;DHT22;54412;51.206;6.888;2023-02-22T13:52:23;16.00;99.90
5246;DHT22;54412;51.206;6.888;2023-02-22T13:55:05;16.00;99.90
5246;DHT22;54412;51.206;6.888;2023-02-22T13:58:05;16.10;99.90
5246;DHT22;54412;51.206;6.888;2023-02-22T14:00:56;16.40;99.90
5246;DHT22;54412;51.206;6.888;2023-02-22T14:03:35;16.30;99.90
5246;DHT22;54412;51.206;6.888;2023-02-22T14:09:13;16.40;99.90
5246;DHT22;54412;51.206;6.888;2023-02-22T14:11:45;16.40;99.90
5246;DHT22;54412;51.206;6.888;2023-02-22T14:14:13;16.30;99.90
5246;DHT22;54412;51.206;6.888;2023-02-22T14:16:42;16.10;99.90
5246;DHT22;54412;51.206;6.888;2023-02-22T14:19:18;16.10;99.90
5246;DHT22;54412;51.206;6.888;2023-02-22T14:22:06;16.00;99.90
5246;DHT22;54412;51.206;6.888;2023-02-22T14:24:46;15.80;99.90
5246;DHT22;54412;51.206;6.888;2023-02-22T14:27:13;15.80;99.90
5246;DHT22;54412;51.206;6.888;2023-02-22T14:29:50;15.60;99.90
5246;DHT22;54412;51.206;6.888;2023-02-22T14:32:18;15.70;99.90
5246;DHT22;54412;51.206;6.888;2023-02-22T14:34:55;15.80;99.90
5246;DHT22;54412;51.206;6.888;2023-02-22T14:37:33;16.00;99.90
5246;DHT22;54412;51.206;6.888;2023-02-22T14:40:16;15.80;99.90
5246;DHT22;54412;51.206;6.888;2023-02-22T14:43:31;15.70;99.90
5246;DHT22;54412;51.206;6.888;2023-02-22T14:45:52;15.50;99.90
5246;DHT22;54412;51.206;6.888;2023-02-22T14:48:35;15.50;99.90
5246;DHT22;54412;51.206;6.888;2023-02-22T14:51:25;15.50;99.90
5246;DHT22;54412;51.206;6.888;2023-02-22T14:54:04;15.50;99.90
5246;DHT22;54412;51.206;6.888;2023-02-22T14:56:50;15.60;99.90
5246;DHT22;54412;51.206;6.888;2023-02-22T14:59:25;15.50;99.90
5246;DHT22;54412;51.206;6.888;2023-02-22T15:02:09;15.50;99.90
5246;DHT22;54412;51.206;6.888;2023-02-22T15:04:37;15.60;99.90
5246;DHT22;54412;51.206;6.888;2023-02-22T15:07:20;15.70;99.90
5246;DHT22;54412;51.206;6.888;2023-02-22T15:10:04;15.70;99.90
5246;DHT22;54412;51.206;6.888;2023-02-22T15:12:31;15.70;99.90
5246;DHT22;54412;51.206;6.888;2023-02-22T15:15:16;15.60;99.90
5246;DHT22;54412;51.206;6.888;2023-02-22T15:17:47;15.60;99.90
5246;DHT22;54412;51.206;6.888;2023-02-22T15:20:19;15.50;99.90
5246;DHT22;54412;51.206;6.888;2023-02-22T15:22:47;15.40;99.90
5246;DHT22;54412;51.206;6.888;2023-02-22T15:25:14;15.30;99.90
5246;DHT22;54412;51.206;6.888;2023-02-22T15:27:43;15.30;99.90
5246;DHT22;54412;51.206;6.888;2023-02-22T15:30:26;15.30;99.90
5246;DHT22;54412;51.206;6.888;2023-02-22T15:32:54;15.20;99.90
5246;DHT22;54412;51.206;6.888;2023-02-22T15:40:38;15.10;99.90
5246;DHT22;54412;51.206;6.888;2023-02-22T15:43:24;15.10;99.90
5246;DHT22;54412;51.206;6.888;2023-02-22T15:45:53;14.90;99.90
5246;DHT22;54412;51.206;6.888;2023-02-22T15:48:20;14.90;99.90
5246;DHT22;54412;51.206;6.888;2023-02-22T15:51:04;14.90;99.90
5246;DHT22;54412;51.206;6.888;2023-02-22T15:53:44;14.80;99.90
5246;DHT22;54412;51.206;6.888;2023-02-22T15:56:15;14.70;99.90
5246;DHT22;54412;51.206;6.888;2023-02-22T15:58:45;14.60;99.90
5246;DHT22;54412;51.206;6.888;2023-02-22T16:01:14;14.60;99.90
5246;DHT22;54412;51.206;6.888;2023-02-22T16:03:47;14.50;99.90
5246;DHT22;54412;51.206;6.888;2023-02-22T16:06:29;14.40;99.90
5246;DHT22;54412;51.206;6.888;2023-02-22T16:09:09;14.50;99.90
5246;DHT22;54412;51.206;6.888;2023-02-22T16:11:40;14.40;99.90
5246;DHT22;54412;51.206;6.888;2023-02-22T16:14:28;14.30;99.90
5246;DHT22;54412;51.206;6.888;2023-02-22T16:17:11;14.30;99.90
5246;DHT22;54412;51.206;6.888;2023-02-22T16:19:56;14.30;99.90
5246;DHT22;54412;51.206;6.888;2023-02-22T16:27:48;14.20;99.90
5246;DHT22;54412;51.206;6.888;2023-02-22T16:32:44;14.10;99.90
5246;DHT22;54412;51.206;6.888;2023-02-22T16:35:11;14.10;99.90
5246;DHT22;54412;51.206;6.888;2023-02-22T16:37:47;14.10;99.90
5246;DHT22;54412;51.206;6.888;2023-02-22T16:43:01;14.00;99.90
5246;DHT22;54412;51.206;6.888;2023-02-22T16:45:30;13.90;99.90
5246;DHT22;54412;51.206;6.888;2023-02-22T16:48:00;13.90;99.90
5246;DHT22;54412;51.206;6.888;2023-02-22T16:50:35;13.80;99.90
5246;DHT22;54412;51.206;6.888;2023-02-22T16:53:01;13.80;99.90
5246;DHT22;54412;51.206;6.888;2023-02-22T16:55:27;13.70;99.90
5246;DHT22;54412;51.206;6.888;2023-02-22T16:57:56;13.70;99.90
5246;DHT22;54412;51.206;6.888;2023-02-22T17:00:25;13.70;99.90
5246;DHT22;54412;51.206;6.888;2023-02-22T17:03:03;13.60;99.90
5246;DHT22;54412;51.206;6.888;2023-02-22T17:05:32;13.60;99.90
5246;DHT22;54412;51.206;6.888;2023-02-22T17:08:02;13.60;99.90
5246;DHT22;54412;51.206;6.888;2023-02-22T17:10:28;13.60;99.90
5246;DHT22;54412;51.206;6.888;2023-02-22T17:12:54;13.50;99.90
5246;DHT22;54412;51.206;6.888;2023-02-22T17:15:27;13.50;99.90
5246;DHT22;54412;51.206;6.888;2023-02-22T17:17:56;13.50;99.90
5246;DHT22;54412;51.206;6.888;2023-02-22T17:20:22;13.50;99.90
5246;DHT22;54412;51.206;6.888;2023-02-22T17:23:05;13.40;99.90
5246;DHT22;54412;51.206;6.888;2023-02-22T17:25:37;13.40;99.90
5246;DHT22;54412;51.206;6.888;2023-02-22T17:28:05;13.40;99.90
5246;DHT22;54412;51.206;6.888;2023-02-22T17:30:32;13.40;99.90
5246;DHT22;54412;51.206;6.888;2023-02-22T17:33:01;13.30;99.90
5246;DHT22;54412;51.206;6.888;2023-02-22T17:35:30;13.30;99.90
5246;DHT22;54412;51.206;6.888;2023-02-22T17:37:58;13.20;99.90
5246;DHT22;54412;51.206;6.888;2023-02-22T17:40:26;13.10;99.90
5246;DHT22;54412;51.206;6.888;2023-02-22T17:42:53;13.10;99.90
5246;DHT22;54412;51.206;6.888;2023-02-22T17:45:23;13.10;99.90
5246;DHT22;54412;51.206;6.888;2023-02-22T17:47:51;13.10;99.90
5246;DHT22;54412;51.206;6.888;2023-02-22T17:50:18;13.20;99.90
5246;DHT22;54412;51.206;6.888;2023-02-22T17:52:46;13.10;99.90
5246;DHT22;54412;51.206;6.888;2023-02-22T17:55:12;13.10;99.90
5246;DHT22;54412;51.206;6.888;2023-02-22T17:57:39;13.00;99.90
5246;DHT22;54412;51.206;6.888;2023-02-22T18:00:10;13.10;99.90
5246;DHT22;54412;51.206;6.888;2023-02-22T18:02:48;13.00;99.90
5246;DHT22;54412;51.206;6.888;2023-02-22T18:05:16;13.10;99.90
5246;DHT22;54412;51.206;6.888;2023-02-22T18:07:43;13.00;99.90
5246;DHT22;54412;51.206;6.888;2023-02-22T18:10:10;13.10;99.90
5246;DHT22;54412;51.206;6.888;2023-02-22T18:12:37;13.00;99.90
5246;DHT22;54412;51.206;6.888;2023-02-22T18:15:04;12.90;99.90
5246;DHT22;54412;51.206;6.888;2023-02-22T18:17:33;12.90;99.90
5246;DHT22;54412;51.206;6.888;2023-02-22T18:19:58;12.90;99.90
5246;DHT22;54412;51.206;6.888;2023-02-22T18:22:24;12.90;99.90
5246;DHT22;54412;51.206;6.888;2023-02-22T18:24:50;12.90;99.90
5246;DHT22;54412;51.206;6.888;2023-02-22T18:27:18;12.90;99.90
5246;DHT22;54412;51.206;6.888;2023-02-22T18:29:45;12.90;99.90
5246;DHT22;54412;51.206;6.888;2023-02-22T18:32:10;12.90;99.90